Latest Flight | Flight Log | Data Trends | Login | Join FlightData.com!
Flight Info - HK5259 (Cirrus SR22 Turbo (TAT) #0332)
Date
Origin
Dest
Depart
Arrive
Hobbs
Flight Time
Ground Time
Flight Distance
Taxi Distance
Fuel
Fuel/hr
Fuel/nm
Altitude
Gnd Speed
Sat, Feb 27, 2021 SKIB SKGY 14:43 15:31 0.76 hrs 0.53 hrs (0:32) 0.23 hrs (0:14) 87.58 nm 0.39 nm 13.77 gal 18.17 gal/hr 0.16 gal/nm 11249 msl 154.85 kts
Flight Track | Google Earth Export: 3D View, Cockpit View
NEXRAD Archive
Zoom In: Double click. Zoom Out: Double right-click.
Scroll Map: Left-click and drag. Show on graph: Click on track.
Graph | Increase Sample Rate (1 sec) |
Zoom In: Click and Drag to the right and down. Zoom Out: Click and Drag to the left.
Scroll Chart (while zoomed in): Hold right mouse-button.
Autopilot / COM
AP/FD:
Mode:
COMs:
NAVs:
AP:
FD:
HSI Sel CRS Sel ActvWpt Dist
-NA-
More Flights - HK5259
Tue, Dec 8, 2020 SKMD SKGY 14:32 15:32 0.93 hrs 0.8 hrs 143.80 nm 17.19 gal 18.56 gal/hr 0.12 gal/nm 11967 msl 164 kts
Cruise 14:51:07 14:57:34   6m 27s 19.51 nm 1.83 gal 17 gal/h 0.09 gal/nm 11504 feet 170 kts    
Cruise 15:08:57 15:24:23   15m 26s 46.87 nm 4.38 gal 17 gal/h 0.09 gal/nm 11495 feet 173 kts    
Tue, Nov 17, 2020 SKGI SKGY 17:55 18:34 0.6 hrs 0.45 hrs 73.66 nm 11.18 gal 18.56 gal/hr 0.15 gal/nm 11028 msl 152 kts
Cruise 18:19:38 18:23:27   3m 49s 10.8 nm 1.02 gal 16 gal/h 0.09 gal/nm 10614 feet 163 kts    
Wed, Dec 2, 2020 SKCL SKGY 13:32 14:52 1.24 hrs 1.02 hrs 179.72 nm 22.87 gal 18.52 gal/hr 0.13 gal/nm 15211 msl 163 kts
Cruise 14:04:21 14:13:42   9m 21s 28.1 nm 2.5 gal 16 gal/h 0.09 gal/nm 15003 feet 172 kts    
Cruise 14:18:50 14:23:02   4m 12s 13 nm 1.12 gal 16 gal/h 0.09 gal/nm 14897 feet 176 kts    
Cruise 14:37:56 14:40:15   2m 19s 6.92 nm 0.62 gal 16 gal/h 0.09 gal/nm 11348 feet 167 kts    
Tue, Feb 23, 2021 SKMR SKMR 15:41 16:04 0.36 hrs 0.15 hrs 20.96 nm 6.70 gal 18.43 gal/hr 0.32 gal/nm 7340 msl 134 kts
Tue, Feb 23, 2021 SKSM SKIB 19:36 22:23 2.6 hrs 2.45 hrs 415.45 nm 47.78 gal 18.38 gal/hr 0.12 gal/nm 9987 msl 158 kts
Cruise 20:05:13 20:07:14   2m 01s 5.56 nm 0.54 gal 16 gal/h 0.1 gal/nm 9556 feet 159 kts    
Cruise 20:13:02 20:57:43   44m 41s 124.42 nm 11.92 gal 16 gal/h 0.1 gal/nm 9543 feet 163 kts    
Cruise 21:02:54 22:08:31   1h 05m 184.87 nm 18.6 gal 17 gal/h 0.1 gal/nm 9500 feet 160 kts    
Mon, Dec 28, 2020 SKIB SKCG 18:38 20:59 2.18 hrs 2.02 hrs 370.50 nm 39.73 gal 18.27 gal/hr 0.11 gal/nm 11719 msl 168 kts
Cruise 19:02:51 19:10:15   7m 24s 21.26 nm 1.98 gal 16 gal/h 0.09 gal/nm 10567 feet 167 kts    
Cruise 19:19:24 19:58:30   39m 06s 114.74 nm 10.43 gal 16 gal/h 0.09 gal/nm 11591 feet 172 kts    
Cruise 20:05:39 20:27:14   21m 35s 63 nm 5.76 gal 16 gal/h 0.09 gal/nm 10401 feet 174 kts    
Cruise 20:32:22 20:36:34   4m 12s 12.3 nm 1.12 gal 16 gal/h 0.09 gal/nm 10395 feet 175 kts    
Sat, Feb 27, 2021 SKIB SKGY 14:43 15:31 0.76 hrs 0.53 hrs 87.58 nm 13.77 gal 18.17 gal/hr 0.16 gal/nm 11249 msl 155 kts
Cruise 15:19:32 15:23:26   3m 54s 11.42 nm 1.04 gal 16 gal/h 0.09 gal/nm 10872 feet 172 kts    
Fri, Nov 6, 2020 SKGY SKRG 19:39 20:33 0.86 hrs 0.69 hrs 123.56 nm 15.39 gal 17.91 gal/hr 0.12 gal/nm 11518 msl 170 kts
Cruise 19:57:14 19:59:58   2m 44s 8.16 nm 0.92 gal 20 gal/h 0.11 gal/nm 11500 feet 179 kts    
Cruise 20:05:07 20:21:56   16m 49s 50.5 nm 5.89 gal 21 gal/h 0.12 gal/nm 11499 feet 179 kts    
Tue, Dec 1, 2020 SKCL SKGY 15:49 17:05 1.19 hrs 0.99 hrs 175.85 nm 21.34 gal 17.89 gal/hr 0.12 gal/nm 13733 msl 165 kts
Cruise 16:17:30 16:27:27   9m 57s 30.23 nm 2.66 gal 16 gal/h 0.09 gal/nm 13502 feet 177 kts    
Cruise 16:38:29 16:44:45   6m 16s 18.95 nm 1.68 gal 16 gal/h 0.09 gal/nm 11427 feet 172 kts    
Cruise 16:54:07 16:56:32   2m 25s 6.89 nm 0.65 gal 16 gal/h 0.09 gal/nm 9650 feet 163 kts    
Sat, Dec 19, 2020 SKGI SVEZ 11:17 13:40 2.22 hrs 1.94 hrs 337.98 nm 39.52 gal 17.82 gal/hr 0.12 gal/nm 13515 msl 163 kts
Cruise 11:50:59 11:55:14   4m 15s 11.52 nm 1.14 gal 16 gal/h 0.1 gal/nm 9667 feet 153 kts    
Cruise 12:15:21 12:19:44   4m 23s 12.69 nm 1.17 gal 16 gal/h 0.09 gal/nm 13407 feet 173 kts    
Cruise 12:24:53 13:10:01   45m 08s 130.94 nm 12.04 gal 16 gal/h 0.09 gal/nm 12498 feet 174 kts    
Sun, Feb 21, 2021 SKIB SKGY 15:08 15:50 0.66 hrs 0.46 hrs 78.86 nm 11.71 gal 17.77 gal/hr 0.15 gal/nm 11071 msl 157 kts
Cruise 15:34:37 15:45:15   10m 38s 31.06 nm 2.84 gal 16 gal/h 0.09 gal/nm 10912 feet 175 kts    
Fri, Feb 26, 2021 SKIB SKGY 16:13 17:02 0.79 hrs 0.58 hrs 93.53 nm 14.02 gal 17.71 gal/hr 0.15 gal/nm 11221 msl 156 kts
Cruise 16:41:26 16:47:53   6m 27s 18.21 nm 1.72 gal 16 gal/h 0.09 gal/nm 11002 feet 162 kts    
Sun, Jan 17, 2021 SKBS SKGY 15:42 17:23 1.59 hrs 1.37 hrs 228.58 nm 28.16 gal 17.66 gal/hr 0.12 gal/nm 14009 msl 159 kts
Cruise 16:09:13 16:21:15   12m 02s 35.95 nm 3.21 gal 16 gal/h 0.09 gal/nm 13001 feet 167 kts    
Cruise 16:31:13 16:49:44   18m 31s 55.91 nm 4.94 gal 16 gal/h 0.09 gal/nm 13981 feet 165 kts    
Cruise 16:59:31 17:12:09   12m 38s 37.32 nm 3.37 gal 16 gal/h 0.09 gal/nm 11499 feet 163 kts    
Complete Flight Log (130)
FlightData.com is sponsored by AEROCOR